LOWW/VIE METAR and TAF weather

Enter ICAO airport designator
Station Type Date Time Source
LOWW METAR 2020/04/03 22:50 UTC NOAA

LOWW 032250Z 33003KT CAVOK 06/M01 Q1020 NOSIG


Station Type Date Time Source
LOWW Decoded METAR 2020/04/03 22:50 UTC NOAA

Wien / Schwechat-Flughafen, Austria (LOWW) 48-07N 016-34E 190M
Apr 03, 2020 - 06:50 PM EDT / 2020.04.03 2250 UTC
Wind: from the NNW (330 degrees) at 3 MPH (3 KT):0
Visibility: greater than 7 mile(s):0
Temperature: 42 F (6 C)
Dew Point: 30 F (-1 C)
Relative Humidity: 60%
Pressure (altimeter): 30.12 in. Hg (1020 hPa)
ob: LOWW 032250Z 33003KT CAVOK 06/M01 Q1020 NOSIG
cycle: 23

Station Type Date Time Source
LOWW TAF 2020/04/03 21:23 UTC NOAA

TAF LOWW 032015Z 0321/0503 VRB05KT CAVOK TX13/0414Z TN02/0404Z
BECMG 0407/0410 02009KT
BECMG 0417/0420 VRB03KT

Example: see airport list